sensor_id;sensor_type;location;lat;lon;timestamp;P1;durP1;ratioP1;P2;durP2;ratioP2
30617;SDS011;17384;51.214;9.202;2023-01-26T00:01:26;16.73;;;6.50;;
30617;SDS011;17384;51.214;9.202;2023-01-26T00:03:53;13.45;;;6.38;;
30617;SDS011;17384;51.214;9.202;2023-01-26T00:06:19;15.13;;;7.13;;
30617;SDS011;17384;51.214;9.202;2023-01-26T00:08:47;11.57;;;6.07;;
30617;SDS011;17384;51.214;9.202;2023-01-26T00:11:15;16.17;;;7.07;;
30617;SDS011;17384;51.214;9.202;2023-01-26T00:13:42;9.25;;;5.72;;
30617;SDS011;17384;51.214;9.202;2023-01-26T00:16:08;12.70;;;6.47;;
30617;SDS011;17384;51.214;9.202;2023-01-26T00:18:37;10.82;;;6.13;;
30617;SDS011;17384;51.214;9.202;2023-01-26T00:21:03;15.27;;;7.80;;
30617;SDS011;17384;51.214;9.202;2023-01-26T00:23:30;25.83;;;11.05;;
30617;SDS011;17384;51.214;9.202;2023-01-26T00:25:56;28.40;;;13.75;;
30617;SDS011;17384;51.214;9.202;2023-01-26T00:28:21;33.22;;;14.27;;
30617;SDS011;17384;51.214;9.202;2023-01-26T00:30:47;27.75;;;12.80;;
30617;SDS011;17384;51.214;9.202;2023-01-26T00:33:13;32.38;;;15.05;;
30617;SDS011;17384;51.214;9.202;2023-01-26T00:35:39;41.50;;;16.88;;
30617;SDS011;17384;51.214;9.202;2023-01-26T00:38:08;39.20;;;14.43;;
30617;SDS011;17384;51.214;9.202;2023-01-26T00:40:35;42.35;;;16.00;;
30617;SDS011;17384;51.214;9.202;2023-01-26T00:43:00;42.60;;;16.92;;
30617;SDS011;17384;51.214;9.202;2023-01-26T00:45:25;32.83;;;14.25;;
30617;SDS011;17384;51.214;9.202;2023-01-26T00:47:51;40.92;;;16.38;;
30617;SDS011;17384;51.214;9.202;2023-01-26T00:50:17;40.83;;;16.23;;
30617;SDS011;17384;51.214;9.202;2023-01-26T00:52:42;45.08;;;17.27;;
30617;SDS011;17384;51.214;9.202;2023-01-26T00:55:08;44.13;;;17.95;;
30617;SDS011;17384;51.214;9.202;2023-01-26T00:57:33;46.67;;;19.13;;
30617;SDS011;17384;51.214;9.202;2023-01-26T00:59:59;46.67;;;19.27;;
30617;SDS011;17384;51.214;9.202;2023-01-26T01:02:24;41.65;;;18.33;;
30617;SDS011;17384;51.214;9.202;2023-01-26T01:04:50;49.72;;;20.13;;
30617;SDS011;17384;51.214;9.202;2023-01-26T01:07:15;45.40;;;19.20;;
30617;SDS011;17384;51.214;9.202;2023-01-26T01:09:41;46.63;;;19.88;;
30617;SDS011;17384;51.214;9.202;2023-01-26T01:12:06;51.47;;;20.25;;
30617;SDS011;17384;51.214;9.202;2023-01-26T01:14:32;52.35;;;20.80;;
30617;SDS011;17384;51.214;9.202;2023-01-26T01:16:57;63.63;;;22.98;;
30617;SDS011;17384;51.214;9.202;2023-01-26T01:19:23;49.15;;;19.92;;
30617;SDS011;17384;51.214;9.202;2023-01-26T01:21:48;50.63;;;19.55;;
30617;SDS011;17384;51.214;9.202;2023-01-26T01:24:14;55.72;;;21.83;;
30617;SDS011;17384;51.214;9.202;2023-01-26T01:26:39;53.10;;;21.02;;
30617;SDS011;17384;51.214;9.202;2023-01-26T01:29:05;58.30;;;21.98;;
30617;SDS011;17384;51.214;9.202;2023-01-26T01:31:31;49.42;;;20.92;;
30617;SDS011;17384;51.214;9.202;2023-01-26T01:33:57;50.08;;;20.33;;
30617;SDS011;17384;51.214;9.202;2023-01-26T01:36:22;52.10;;;21.30;;
30617;SDS011;17384;51.214;9.202;2023-01-26T01:38:48;56.63;;;22.65;;
30617;SDS011;17384;51.214;9.202;2023-01-26T01:41:15;54.65;;;20.98;;
30617;SDS011;17384;51.214;9.202;2023-01-26T01:43:42;53.03;;;21.05;;
30617;SDS011;17384;51.214;9.202;2023-01-26T01:46:14;46.75;;;19.88;;
30617;SDS011;17384;51.214;9.202;2023-01-26T01:48:50;54.50;;;22.38;;
30617;SDS011;17384;51.214;9.202;2023-01-26T01:51:19;48.85;;;20.60;;
30617;SDS011;17384;51.214;9.202;2023-01-26T01:53:54;43.30;;;19.67;;
30617;SDS011;17384;51.214;9.202;2023-01-26T01:56:23;44.13;;;18.63;;
30617;SDS011;17384;51.214;9.202;2023-01-26T01:58:52;46.60;;;19.23;;
30617;SDS011;17384;51.214;9.202;2023-01-26T02:01:21;44.75;;;18.27;;
30617;SDS011;17384;51.214;9.202;2023-01-26T02:03:47;37.33;;;16.10;;
30617;SDS011;17384;51.214;9.202;2023-01-26T02:06:21;41.22;;;17.08;;
30617;SDS011;17384;51.214;9.202;2023-01-26T02:08:53;42.60;;;17.33;;
30617;SDS011;17384;51.214;9.202;2023-01-26T02:14:04;37.70;;;15.77;;
30617;SDS011;17384;51.214;9.202;2023-01-26T02:16:32;38.00;;;16.47;;
30617;SDS011;17384;51.214;9.202;2023-01-26T02:18:58;39.35;;;15.48;;
30617;SDS011;17384;51.214;9.202;2023-01-26T02:21:24;43.08;;;18.95;;
30617;SDS011;17384;51.214;9.202;2023-01-26T02:24:15;35.97;;;17.30;;
30617;SDS011;17384;51.214;9.202;2023-01-26T02:26:53;40.57;;;16.20;;
30617;SDS011;17384;51.214;9.202;2023-01-26T02:29:19;43.10;;;17.25;;
30617;SDS011;17384;51.214;9.202;2023-01-26T02:31:46;45.00;;;17.58;;
30617;SDS011;17384;51.214;9.202;2023-01-26T02:34:12;38.85;;;17.33;;
30617;SDS011;17384;51.214;9.202;2023-01-26T02:36:38;40.85;;;17.83;;
30617;SDS011;17384;51.214;9.202;2023-01-26T02:41:41;47.90;;;18.25;;
30617;SDS011;17384;51.214;9.202;2023-01-26T02:44:25;41.65;;;16.88;;
30617;SDS011;17384;51.214;9.202;2023-01-26T02:46:52;37.47;;;17.35;;
30617;SDS011;17384;51.214;9.202;2023-01-26T02:49:17;42.15;;;18.15;;
30617;SDS011;17384;51.214;9.202;2023-01-26T02:52:03;48.10;;;17.50;;
30617;SDS011;17384;51.214;9.202;2023-01-26T02:54:28;42.45;;;18.00;;
30617;SDS011;17384;51.214;9.202;2023-01-26T02:57:12;45.20;;;18.02;;
30617;SDS011;17384;51.214;9.202;2023-01-26T02:59:38;46.83;;;20.23;;
30617;SDS011;17384;51.214;9.202;2023-01-26T03:02:03;48.45;;;20.10;;
30617;SDS011;17384;51.214;9.202;2023-01-26T03:04:29;51.55;;;19.88;;
30617;SDS011;17384;51.214;9.202;2023-01-26T03:06:54;51.47;;;20.52;;
30617;SDS011;17384;51.214;9.202;2023-01-26T03:09:20;54.17;;;20.67;;
30617;SDS011;17384;51.214;9.202;2023-01-26T03:11:46;56.67;;;22.45;;
30617;SDS011;17384;51.214;9.202;2023-01-26T03:14:14;61.35;;;23.52;;
30617;SDS011;17384;51.214;9.202;2023-01-26T03:16:40;50.90;;;19.55;;
30617;SDS011;17384;51.214;9.202;2023-01-26T03:19:06;53.33;;;21.25;;
30617;SDS011;17384;51.214;9.202;2023-01-26T03:21:54;49.97;;;19.70;;
30617;SDS011;17384;51.214;9.202;2023-01-26T03:24:38;60.58;;;21.48;;
30617;SDS011;17384;51.214;9.202;2023-01-26T03:27:22;56.15;;;21.65;;
30617;SDS011;17384;51.214;9.202;2023-01-26T03:29:50;55.13;;;21.45;;
30617;SDS011;17384;51.214;9.202;2023-01-26T03:32:16;61.83;;;22.25;;
30617;SDS011;17384;51.214;9.202;2023-01-26T03:34:41;60.53;;;22.83;;
30617;SDS011;17384;51.214;9.202;2023-01-26T03:37:07;55.90;;;22.00;;
30617;SDS011;17384;51.214;9.202;2023-01-26T03:39:32;55.50;;;22.15;;
30617;SDS011;17384;51.214;9.202;2023-01-26T03:42:16;60.63;;;23.88;;
30617;SDS011;17384;51.214;9.202;2023-01-26T03:45:00;51.78;;;22.58;;
30617;SDS011;17384;51.214;9.202;2023-01-26T03:47:44;60.22;;;22.38;;
30617;SDS011;17384;51.214;9.202;2023-01-26T03:50:28;56.58;;;20.65;;
30617;SDS011;17384;51.214;9.202;2023-01-26T03:53:17;53.72;;;23.20;;
30617;SDS011;17384;51.214;9.202;2023-01-26T03:56:06;63.40;;;24.33;;
30617;SDS011;17384;51.214;9.202;2023-01-26T03:59:00;53.80;;;21.75;;
30617;SDS011;17384;51.214;9.202;2023-01-26T04:01:32;60.60;;;22.50;;
30617;SDS011;17384;51.214;9.202;2023-01-26T04:03:59;53.22;;;22.00;;
30617;SDS011;17384;51.214;9.202;2023-01-26T04:06:43;60.85;;;25.13;;
30617;SDS011;17384;51.214;9.202;2023-01-26T04:09:29;50.42;;;20.75;;
30617;SDS011;17384;51.214;9.202;2023-01-26T04:11:55;53.78;;;23.15;;
30617;SDS011;17384;51.214;9.202;2023-01-26T04:14:21;57.53;;;22.52;;
30617;SDS011;17384;51.214;9.202;2023-01-26T04:17:05;65.45;;;23.38;;
30617;SDS011;17384;51.214;9.202;2023-01-26T04:19:50;48.47;;;19.55;;
30617;SDS011;17384;51.214;9.202;2023-01-26T04:22:35;56.20;;;22.20;;
30617;SDS011;17384;51.214;9.202;2023-01-26T04:25:07;65.40;;;25.02;;
30617;SDS011;17384;51.214;9.202;2023-01-26T04:27:34;69.95;;;26.75;;
30617;SDS011;17384;51.214;9.202;2023-01-26T04:30:00;71.78;;;26.15;;
30617;SDS011;17384;51.214;9.202;2023-01-26T04:32:27;70.07;;;24.90;;
30617;SDS011;17384;51.214;9.202;2023-01-26T04:34:53;73.15;;;24.20;;
30617;SDS011;17384;51.214;9.202;2023-01-26T04:37:19;78.82;;;25.17;;
30617;SDS011;17384;51.214;9.202;2023-01-26T04:39:44;75.13;;;24.42;;
30617;SDS011;17384;51.214;9.202;2023-01-26T04:42:09;78.40;;;27.00;;
30617;SDS011;17384;51.214;9.202;2023-01-26T04:44:35;68.57;;;26.45;;
30617;SDS011;17384;51.214;9.202;2023-01-26T04:47:00;78.13;;;27.05;;
30617;SDS011;17384;51.214;9.202;2023-01-26T04:49:26;93.97;;;29.45;;
30617;SDS011;17384;51.214;9.202;2023-01-26T04:51:51;91.53;;;29.13;;
30617;SDS011;17384;51.214;9.202;2023-01-26T04:54:17;92.10;;;30.73;;
30617;SDS011;17384;51.214;9.202;2023-01-26T04:56:42;101.15;;;30.23;;
30617;SDS011;17384;51.214;9.202;2023-01-26T04:59:08;96.55;;;29.58;;
30617;SDS011;17384;51.214;9.202;2023-01-26T05:01:34;109.28;;;32.13;;
30617;SDS011;17384;51.214;9.202;2023-01-26T05:04:00;89.32;;;30.67;;
30617;SDS011;17384;51.214;9.202;2023-01-26T05:06:26;89.90;;;29.45;;
30617;SDS011;17384;51.214;9.202;2023-01-26T05:08:52;153.88;;;49.33;;
30617;SDS011;17384;51.214;9.202;2023-01-26T05:11:17;114.03;;;36.28;;
30617;SDS011;17384;51.214;9.202;2023-01-26T05:13:43;113.32;;;34.17;;
30617;SDS011;17384;51.214;9.202;2023-01-26T05:16:10;131.32;;;34.78;;
30617;SDS011;17384;51.214;9.202;2023-01-26T05:18:38;130.70;;;35.70;;
30617;SDS011;17384;51.214;9.202;2023-01-26T05:21:04;135.68;;;34.58;;
30617;SDS011;17384;51.214;9.202;2023-01-26T05:23:29;125.07;;;35.85;;
30617;SDS011;17384;51.214;9.202;2023-01-26T05:25:55;138.63;;;38.45;;
30617;SDS011;17384;51.214;9.202;2023-01-26T05:28:21;124.88;;;38.70;;
30617;SDS011;17384;51.214;9.202;2023-01-26T05:30:46;168.60;;;52.20;;
30617;SDS011;17384;51.214;9.202;2023-01-26T05:33:12;166.48;;;59.20;;
30617;SDS011;17384;51.214;9.202;2023-01-26T05:35:38;133.00;;;42.22;;
30617;SDS011;17384;51.214;9.202;2023-01-26T05:38:03;130.68;;;38.88;;
30617;SDS011;17384;51.214;9.202;2023-01-26T05:40:29;129.98;;;37.90;;
30617;SDS011;17384;51.214;9.202;2023-01-26T05:42:54;147.68;;;39.85;;
30617;SDS011;17384;51.214;9.202;2023-01-26T05:45:20;147.60;;;36.88;;
30617;SDS011;17384;51.214;9.202;2023-01-26T05:47:46;122.85;;;36.63;;
30617;SDS011;17384;51.214;9.202;2023-01-26T05:50:15;133.18;;;36.50;;
30617;SDS011;17384;51.214;9.202;2023-01-26T05:52:41;133.70;;;37.28;;
30617;SDS011;17384;51.214;9.202;2023-01-26T05:55:07;112.05;;;33.47;;
30617;SDS011;17384;51.214;9.202;2023-01-26T05:57:33;131.02;;;34.33;;
30617;SDS011;17384;51.214;9.202;2023-01-26T06:00:00;116.30;;;36.05;;
30617;SDS011;17384;51.214;9.202;2023-01-26T06:02:26;138.98;;;35.40;;
30617;SDS011;17384;51.214;9.202;2023-01-26T06:04:51;128.63;;;38.13;;
30617;SDS011;17384;51.214;9.202;2023-01-26T06:07:17;146.02;;;42.58;;
30617;SDS011;17384;51.214;9.202;2023-01-26T06:09:43;139.15;;;41.28;;
30617;SDS011;17384;51.214;9.202;2023-01-26T06:12:15;125.38;;;37.53;;
30617;SDS011;17384;51.214;9.202;2023-01-26T06:14:42;139.38;;;40.83;;
30617;SDS011;17384;51.214;9.202;2023-01-26T06:17:08;152.77;;;39.75;;
30617;SDS011;17384;51.214;9.202;2023-01-26T06:19:33;143.38;;;39.95;;
30617;SDS011;17384;51.214;9.202;2023-01-26T06:22:00;130.85;;;39.25;;
30617;SDS011;17384;51.214;9.202;2023-01-26T06:24:26;145.00;;;41.63;;
30617;SDS011;17384;51.214;9.202;2023-01-26T06:26:51;130.32;;;38.33;;
30617;SDS011;17384;51.214;9.202;2023-01-26T06:29:16;147.32;;;40.72;;
30617;SDS011;17384;51.214;9.202;2023-01-26T06:31:42;127.20;;;38.15;;
30617;SDS011;17384;51.214;9.202;2023-01-26T06:34:07;149.35;;;39.90;;
30617;SDS011;17384;51.214;9.202;2023-01-26T06:36:33;152.43;;;39.92;;
30617;SDS011;17384;51.214;9.202;2023-01-26T06:38:59;145.75;;;40.17;;
30617;SDS011;17384;51.214;9.202;2023-01-26T06:41:25;144.43;;;41.15;;
30617;SDS011;17384;51.214;9.202;2023-01-26T06:43:50;153.10;;;41.05;;
30617;SDS011;17384;51.214;9.202;2023-01-26T06:46:16;141.77;;;39.22;;
30617;SDS011;17384;51.214;9.202;2023-01-26T06:48:42;161.23;;;41.33;;
30617;SDS011;17384;51.214;9.202;2023-01-26T06:53:46;125.72;;;36.70;;
30617;SDS011;17384;51.214;9.202;2023-01-26T06:56:13;158.65;;;41.13;;
30617;SDS011;17384;51.214;9.202;2023-01-26T06:58:39;161.15;;;40.13;;
30617;SDS011;17384;51.214;9.202;2023-01-26T07:01:04;149.45;;;42.20;;
30617;SDS011;17384;51.214;9.202;2023-01-26T07:03:30;172.40;;;41.90;;
30617;SDS011;17384;51.214;9.202;2023-01-26T07:05:56;155.02;;;39.97;;
30617;SDS011;17384;51.214;9.202;2023-01-26T07:08:22;157.32;;;42.53;;
30617;SDS011;17384;51.214;9.202;2023-01-26T07:10:48;167.93;;;49.40;;
30617;SDS011;17384;51.214;9.202;2023-01-26T07:13:14;160.23;;;47.58;;
30617;SDS011;17384;51.214;9.202;2023-01-26T07:15:40;155.65;;;43.20;;
30617;SDS011;17384;51.214;9.202;2023-01-26T07:18:05;161.15;;;42.45;;
30617;SDS011;17384;51.214;9.202;2023-01-26T07:20:31;170.77;;;44.33;;
30617;SDS011;17384;51.214;9.202;2023-01-26T07:22:58;162.77;;;40.90;;
30617;SDS011;17384;51.214;9.202;2023-01-26T07:25:24;170.27;;;41.60;;
30617;SDS011;17384;51.214;9.202;2023-01-26T07:27:54;146.00;;;37.65;;
30617;SDS011;17384;51.214;9.202;2023-01-26T07:30:20;152.38;;;39.10;;
30617;SDS011;17384;51.214;9.202;2023-01-26T07:32:45;132.70;;;37.00;;
30617;SDS011;17384;51.214;9.202;2023-01-26T07:35:11;123.95;;;36.33;;
30617;SDS011;17384;51.214;9.202;2023-01-26T07:37:39;113.60;;;32.13;;
30617;SDS011;17384;51.214;9.202;2023-01-26T07:40:05;134.52;;;34.85;;
30617;SDS011;17384;51.214;9.202;2023-01-26T07:42:31;134.32;;;32.88;;
30617;SDS011;17384;51.214;9.202;2023-01-26T07:44:56;124.82;;;33.20;;
30617;SDS011;17384;51.214;9.202;2023-01-26T07:47:22;116.13;;;32.05;;
30617;SDS011;17384;51.214;9.202;2023-01-26T07:49:47;120.55;;;33.33;;
30617;SDS011;17384;51.214;9.202;2023-01-26T07:52:13;132.70;;;38.92;;
30617;SDS011;17384;51.214;9.202;2023-01-26T07:54:38;113.25;;;30.90;;
30617;SDS011;17384;51.214;9.202;2023-01-26T07:57:04;112.97;;;32.97;;
30617;SDS011;17384;51.214;9.202;2023-01-26T07:59:31;124.70;;;31.42;;
30617;SDS011;17384;51.214;9.202;2023-01-26T08:01:56;122.20;;;34.03;;
30617;SDS011;17384;51.214;9.202;2023-01-26T08:04:22;99.18;;;29.85;;
30617;SDS011;17384;51.214;9.202;2023-01-26T08:06:49;108.15;;;29.90;;
30617;SDS011;17384;51.214;9.202;2023-01-26T08:09:15;111.90;;;30.85;;
30617;SDS011;17384;51.214;9.202;2023-01-26T08:11:41;103.95;;;30.40;;
30617;SDS011;17384;51.214;9.202;2023-01-26T08:14:06;99.93;;;29.08;;
30617;SDS011;17384;51.214;9.202;2023-01-26T08:16:32;102.07;;;31.63;;
30617;SDS011;17384;51.214;9.202;2023-01-26T08:18:57;89.82;;;27.70;;
30617;SDS011;17384;51.214;9.202;2023-01-26T08:21:23;101.03;;;29.50;;
30617;SDS011;17384;51.214;9.202;2023-01-26T08:23:48;106.70;;;30.40;;
30617;SDS011;17384;51.214;9.202;2023-01-26T08:26:15;101.05;;;29.40;;
30617;SDS011;17384;51.214;9.202;2023-01-26T08:28:42;115.20;;;30.45;;
30617;SDS011;17384;51.214;9.202;2023-01-26T08:31:09;105.97;;;28.38;;
30617;SDS011;17384;51.214;9.202;2023-01-26T08:33:37;98.93;;;28.55;;
30617;SDS011;17384;51.214;9.202;2023-01-26T08:36:06;100.22;;;28.98;;
30617;SDS011;17384;51.214;9.202;2023-01-26T08:38:34;94.60;;;28.70;;
30617;SDS011;17384;51.214;9.202;2023-01-26T08:41:00;107.47;;;28.88;;
30617;SDS011;17384;51.214;9.202;2023-01-26T08:43:26;102.65;;;28.83;;
30617;SDS011;17384;51.214;9.202;2023-01-26T08:45:51;99.97;;;29.23;;
30617;SDS011;17384;51.214;9.202;2023-01-26T08:48:17;84.95;;;26.42;;
30617;SDS011;17384;51.214;9.202;2023-01-26T08:50:43;86.65;;;25.50;;
30617;SDS011;17384;51.214;9.202;2023-01-26T08:53:08;84.82;;;25.48;;
30617;SDS011;17384;51.214;9.202;2023-01-26T08:55:34;81.80;;;25.25;;
30617;SDS011;17384;51.214;9.202;2023-01-26T08:58:00;75.85;;;25.50;;
30617;SDS011;17384;51.214;9.202;2023-01-26T09:00:26;74.55;;;25.88;;
30617;SDS011;17384;51.214;9.202;2023-01-26T09:02:58;76.80;;;25.42;;
30617;SDS011;17384;51.214;9.202;2023-01-26T09:05:24;79.60;;;26.40;;
30617;SDS011;17384;51.214;9.202;2023-01-26T09:07:50;74.25;;;25.67;;
30617;SDS011;17384;51.214;9.202;2023-01-26T09:10:16;79.63;;;24.38;;
30617;SDS011;17384;51.214;9.202;2023-01-26T09:12:41;75.85;;;24.45;;
30617;SDS011;17384;51.214;9.202;2023-01-26T09:15:07;74.53;;;24.55;;
30617;SDS011;17384;51.214;9.202;2023-01-26T09:17:33;69.30;;;24.70;;
30617;SDS011;17384;51.214;9.202;2023-01-26T09:19:58;84.57;;;28.05;;
30617;SDS011;17384;51.214;9.202;2023-01-26T09:22:24;79.22;;;28.35;;
30617;SDS011;17384;51.214;9.202;2023-01-26T09:24:49;75.80;;;24.83;;
30617;SDS011;17384;51.214;9.202;2023-01-26T09:27:15;77.53;;;24.60;;
30617;SDS011;17384;51.214;9.202;2023-01-26T09:29:40;81.47;;;26.88;;
30617;SDS011;17384;51.214;9.202;2023-01-26T09:32:05;85.97;;;30.05;;
30617;SDS011;17384;51.214;9.202;2023-01-26T09:34:31;95.15;;;28.88;;
30617;SDS011;17384;51.214;9.202;2023-01-26T09:36:56;72.22;;;26.88;;
30617;SDS011;17384;51.214;9.202;2023-01-26T09:39:25;93.15;;;28.80;;
30617;SDS011;17384;51.214;9.202;2023-01-26T09:41:53;85.13;;;27.67;;
30617;SDS011;17384;51.214;9.202;2023-01-26T09:44:24;95.18;;;30.67;;
30617;SDS011;17384;51.214;9.202;2023-01-26T09:46:59;81.85;;;27.85;;
30617;SDS011;17384;51.214;9.202;2023-01-26T09:52:22;96.95;;;29.85;;
30617;SDS011;17384;51.214;9.202;2023-01-26T09:54:53;88.72;;;28.05;;
30617;SDS011;17384;51.214;9.202;2023-01-26T09:57:23;94.13;;;30.40;;
30617;SDS011;17384;51.214;9.202;2023-01-26T10:05:59;100.43;;;30.92;;
30617;SDS011;17384;51.214;9.202;2023-01-26T10:08:30;110.03;;;32.95;;
30617;SDS011;17384;51.214;9.202;2023-01-26T10:11:03;89.95;;;30.35;;
30617;SDS011;17384;51.214;9.202;2023-01-26T10:13:37;95.90;;;29.40;;
30617;SDS011;17384;51.214;9.202;2023-01-26T10:16:04;98.65;;;30.60;;
30617;SDS011;17384;51.214;9.202;2023-01-26T10:18:34;96.95;;;31.48;;
30617;SDS011;17384;51.214;9.202;2023-01-26T10:21:08;94.53;;;29.48;;
30617;SDS011;17384;51.214;9.202;2023-01-26T10:23:36;97.15;;;29.58;;
30617;SDS011;17384;51.214;9.202;2023-01-26T10:26:12;91.88;;;29.17;;
30617;SDS011;17384;51.214;9.202;2023-01-26T10:28:41;106.20;;;31.50;;
30617;SDS011;17384;51.214;9.202;2023-01-26T10:31:14;102.55;;;32.97;;
30617;SDS011;17384;51.214;9.202;2023-01-26T10:33:54;92.38;;;30.65;;
30617;SDS011;17384;51.214;9.202;2023-01-26T10:36:22;89.63;;;29.52;;
30617;SDS011;17384;51.214;9.202;2023-01-26T10:38:49;91.63;;;32.20;;
30617;SDS011;17384;51.214;9.202;2023-01-26T10:46:29;90.63;;;28.88;;
30617;SDS011;17384;51.214;9.202;2023-01-26T10:49:09;85.40;;;29.95;;
30617;SDS011;17384;51.214;9.202;2023-01-26T10:51:40;83.15;;;27.83;;
30617;SDS011;17384;51.214;9.202;2023-01-26T10:54:12;89.75;;;26.90;;
30617;SDS011;17384;51.214;9.202;2023-01-26T10:57:02;80.00;;;28.33;;
30617;SDS011;17384;51.214;9.202;2023-01-26T11:05:00;86.20;;;28.83;;
30617;SDS011;17384;51.214;9.202;2023-01-26T11:07:28;90.20;;;28.83;;
30617;SDS011;17384;51.214;9.202;2023-01-26T11:09:57;96.18;;;31.60;;
30617;SDS011;17384;51.214;9.202;2023-01-26T11:12:48;87.35;;;29.80;;
30617;SDS011;17384;51.214;9.202;2023-01-26T11:15:16;72.93;;;25.77;;
30617;SDS011;17384;51.214;9.202;2023-01-26T11:17:46;83.78;;;26.77;;
30617;SDS011;17384;51.214;9.202;2023-01-26T11:23:10;77.15;;;27.67;;
30617;SDS011;17384;51.214;9.202;2023-01-26T11:31:15;77.05;;;26.42;;
30617;SDS011;17384;51.214;9.202;2023-01-26T11:33:53;70.32;;;25.88;;
30617;SDS011;17384;51.214;9.202;2023-01-26T11:47:17;78.18;;;25.17;;
30617;SDS011;17384;51.214;9.202;2023-01-26T11:52:50;77.15;;;27.63;;
30617;SDS011;17384;51.214;9.202;2023-01-26T11:58:01;74.38;;;26.42;;
30617;SDS011;17384;51.214;9.202;2023-01-26T12:00:36;70.05;;;25.15;;
30617;SDS011;17384;51.214;9.202;2023-01-26T12:06:13;64.85;;;26.23;;
30617;SDS011;17384;51.214;9.202;2023-01-26T12:08:51;69.15;;;25.73;;
30617;SDS011;17384;51.214;9.202;2023-01-26T12:13:58;73.60;;;25.45;;
30617;SDS011;17384;51.214;9.202;2023-01-26T12:21:59;65.85;;;24.10;;
30617;SDS011;17384;51.214;9.202;2023-01-26T12:27:41;64.60;;;23.67;;
30617;SDS011;17384;51.214;9.202;2023-01-26T12:32:58;67.70;;;25.23;;
30617;SDS011;17384;51.214;9.202;2023-01-26T12:36:08;67.03;;;24.15;;
30617;SDS011;17384;51.214;9.202;2023-01-26T12:38:34;62.90;;;22.50;;
30617;SDS011;17384;51.214;9.202;2023-01-26T12:44:17;63.08;;;23.42;;
30617;SDS011;17384;51.214;9.202;2023-01-26T12:47:02;57.38;;;21.55;;
30617;SDS011;17384;51.214;9.202;2023-01-26T12:49:31;66.90;;;24.35;;
30617;SDS011;17384;51.214;9.202;2023-01-26T12:55:16;64.30;;;24.33;;
30617;SDS011;17384;51.214;9.202;2023-01-26T13:00:19;65.43;;;23.42;;
30617;SDS011;17384;51.214;9.202;2023-01-26T13:02:48;62.13;;;24.52;;
30617;SDS011;17384;51.214;9.202;2023-01-26T13:05:32;67.30;;;23.00;;
30617;SDS011;17384;51.214;9.202;2023-01-26T13:11:00;62.83;;;23.02;;
30617;SDS011;17384;51.214;9.202;2023-01-26T13:13:34;51.75;;;20.30;;
30617;SDS011;17384;51.214;9.202;2023-01-26T13:16:32;57.45;;;22.25;;
30617;SDS011;17384;51.214;9.202;2023-01-26T13:18:59;58.75;;;23.10;;
30617;SDS011;17384;51.214;9.202;2023-01-26T13:26:52;46.80;;;19.15;;
30617;SDS011;17384;51.214;9.202;2023-01-26T13:31:49;57.08;;;21.40;;
30617;SDS011;17384;51.214;9.202;2023-01-26T13:34:36;48.95;;;19.55;;
30617;SDS011;17384;51.214;9.202;2023-01-26T13:37:09;56.45;;;21.50;;
30617;SDS011;17384;51.214;9.202;2023-01-26T13:39:40;51.30;;;20.52;;
30617;SDS011;17384;51.214;9.202;2023-01-26T13:42:19;50.33;;;18.70;;
30617;SDS011;17384;51.214;9.202;2023-01-26T13:44:57;47.30;;;18.67;;
30617;SDS011;17384;51.214;9.202;2023-01-26T13:47:38;55.97;;;21.65;;
30617;SDS011;17384;51.214;9.202;2023-01-26T13:50:22;50.80;;;19.00;;
30617;SDS011;17384;51.214;9.202;2023-01-26T13:52:54;49.17;;;19.95;;
30617;SDS011;17384;51.214;9.202;2023-01-26T13:55:27;53.75;;;20.25;;
30617;SDS011;17384;51.214;9.202;2023-01-26T13:58:14;45.45;;;17.13;;
30617;SDS011;17384;51.214;9.202;2023-01-26T14:00:42;48.70;;;19.15;;
30617;SDS011;17384;51.214;9.202;2023-01-26T14:03:21;44.20;;;16.95;;
30617;SDS011;17384;51.214;9.202;2023-01-26T14:05:54;38.28;;;16.08;;
30617;SDS011;17384;51.214;9.202;2023-01-26T14:08:20;38.10;;;16.83;;
30617;SDS011;17384;51.214;9.202;2023-01-26T14:10:47;45.22;;;16.90;;
30617;SDS011;17384;51.214;9.202;2023-01-26T14:16:00;35.47;;;14.48;;
30617;SDS011;17384;51.214;9.202;2023-01-26T14:18:26;33.30;;;15.15;;
30617;SDS011;17384;51.214;9.202;2023-01-26T14:21:13;41.38;;;15.88;;
30617;SDS011;17384;51.214;9.202;2023-01-26T14:23:42;44.00;;;17.15;;
30617;SDS011;17384;51.214;9.202;2023-01-26T14:26:13;41.97;;;17.48;;
30617;SDS011;17384;51.214;9.202;2023-01-26T14:28:54;35.75;;;14.68;;
30617;SDS011;17384;51.214;9.202;2023-01-26T14:31:20;32.17;;;13.85;;
30617;SDS011;17384;51.214;9.202;2023-01-26T14:33:48;39.80;;;15.50;;
30617;SDS011;17384;51.214;9.202;2023-01-26T14:36:21;33.67;;;15.80;;
30617;SDS011;17384;51.214;9.202;2023-01-26T14:38:49;33.85;;;15.50;;
30617;SDS011;17384;51.214;9.202;2023-01-26T14:43:48;31.55;;;14.93;;
30617;SDS011;17384;51.214;9.202;2023-01-26T14:46:19;32.75;;;14.52;;
30617;SDS011;17384;51.214;9.202;2023-01-26T14:49:03;28.70;;;14.02;;
30617;SDS011;17384;51.214;9.202;2023-01-26T14:51:35;29.95;;;13.52;;
30617;SDS011;17384;51.214;9.202;2023-01-26T14:54:09;29.80;;;15.02;;
30617;SDS011;17384;51.214;9.202;2023-01-26T14:56:50;37.63;;;16.05;;
30617;SDS011;17384;51.214;9.202;2023-01-26T14:59:49;41.47;;;15.43;;
30617;SDS011;17384;51.214;9.202;2023-01-26T15:02:15;38.08;;;15.93;;
30617;SDS011;17384;51.214;9.202;2023-01-26T15:04:46;34.50;;;14.93;;
30617;SDS011;17384;51.214;9.202;2023-01-26T15:09:50;34.58;;;17.08;;
30617;SDS011;17384;51.214;9.202;2023-01-26T15:12:17;34.83;;;16.42;;
30617;SDS011;17384;51.214;9.202;2023-01-26T15:19:55;36.33;;;15.02;;
30617;SDS011;17384;51.214;9.202;2023-01-26T15:22:21;36.55;;;15.70;;
30617;SDS011;17384;51.214;9.202;2023-01-26T15:27:51;38.80;;;16.15;;
30617;SDS011;17384;51.214;9.202;2023-01-26T15:30:26;34.08;;;14.05;;
30617;SDS011;17384;51.214;9.202;2023-01-26T15:32:56;36.60;;;14.52;;
30617;SDS011;17384;51.214;9.202;2023-01-26T15:35:24;41.20;;;19.33;;
30617;SDS011;17384;51.214;9.202;2023-01-26T15:38:08;31.27;;;13.27;;
30617;SDS011;17384;51.214;9.202;2023-01-26T15:40:35;30.20;;;14.70;;
30617;SDS011;17384;51.214;9.202;2023-01-26T15:43:15;32.78;;;17.10;;
30617;SDS011;17384;51.214;9.202;2023-01-26T15:46:03;34.53;;;14.38;;
30617;SDS011;17384;51.214;9.202;2023-01-26T15:48:28;30.45;;;14.68;;
30617;SDS011;17384;51.214;9.202;2023-01-26T15:50:55;35.97;;;14.93;;
30617;SDS011;17384;51.214;9.202;2023-01-26T15:53:21;36.22;;;15.65;;
30617;SDS011;17384;51.214;9.202;2023-01-26T15:55:48;29.20;;;13.48;;
30617;SDS011;17384;51.214;9.202;2023-01-26T15:58:19;27.25;;;13.25;;
30617;SDS011;17384;51.214;9.202;2023-01-26T16:00:50;30.23;;;12.60;;
30617;SDS011;17384;51.214;9.202;2023-01-26T16:03:17;34.38;;;13.63;;
30617;SDS011;17384;51.214;9.202;2023-01-26T16:05:44;37.30;;;14.85;;
30617;SDS011;17384;51.214;9.202;2023-01-26T16:08:12;36.92;;;15.55;;
30617;SDS011;17384;51.214;9.202;2023-01-26T16:10:38;34.53;;;14.25;;
30617;SDS011;17384;51.214;9.202;2023-01-26T16:13:07;34.22;;;13.55;;
30617;SDS011;17384;51.214;9.202;2023-01-26T16:15:43;35.83;;;15.10;;
30617;SDS011;17384;51.214;9.202;2023-01-26T16:18:11;34.03;;;14.82;;